createdAt,value
2018-09-27T00:02:39.741Z,82.16
2018-09-27T00:05:45.475Z,82.58
2018-09-27T00:08:51.429Z,82.52
2018-09-27T00:11:57.681Z,81.94
2018-09-27T00:15:04.598Z,82.33
2018-09-27T00:18:11.669Z,82.78
2018-09-27T00:21:18.249Z,81.56
2018-09-27T00:24:24.299Z,82.54
2018-09-27T00:27:30.945Z,83.07
2018-09-27T00:30:36.861Z,82.99
2018-09-27T00:33:42.980Z,83.42
2018-09-27T00:36:50.006Z,83.59
2018-09-27T00:39:56.950Z,82.29
2018-09-27T00:43:02.982Z,82.40
2018-09-27T00:46:10.092Z,83.47
2018-09-27T00:49:15.886Z,82.93
2018-09-27T00:52:22.302Z,82.18
2018-09-27T00:55:29.119Z,82.19
2018-09-27T00:58:35.051Z,83.15
2018-09-27T01:01:41.777Z,83.67
2018-09-27T01:04:46.783Z,83.14
2018-09-27T01:07:52.873Z,82.93
2018-09-27T01:10:59.842Z,82.91
2018-09-27T01:14:05.887Z,82.59
2018-09-27T01:17:12.759Z,82.93
2018-09-27T01:20:18.855Z,83.60
2018-09-27T01:23:24.666Z,83.81
2018-09-27T01:26:31.257Z,83.41
2018-09-27T01:29:37.918Z,84.19
2018-09-27T01:32:42.906Z,83.72
2018-09-27T01:35:49.422Z,84.37
2018-09-27T01:38:54.445Z,83.47
2018-09-27T01:42:00.234Z,83.01
2018-09-27T01:45:07.018Z,83.23
2018-09-27T01:48:13.444Z,82.70
2018-09-27T01:51:19.586Z,83.60
2018-09-27T01:54:25.534Z,82.95
2018-09-27T01:57:30.705Z,83.80
2018-09-27T02:00:37.918Z,84.36
2018-09-27T02:03:42.932Z,83.47
2018-09-27T02:06:48.821Z,84.25
2018-09-27T02:09:53.874Z,83.05
2018-09-27T02:12:59.918Z,84.09
2018-09-27T02:16:07.429Z,83.43
2018-09-27T02:19:12.430Z,83.36
2018-09-27T02:22:18.079Z,83.86
2018-09-27T02:25:23.837Z,83.80
2018-09-27T02:28:29.606Z,83.41
2018-09-27T02:31:35.690Z,82.48
2018-09-27T02:34:41.817Z,83.44
2018-09-27T02:37:47.569Z,83.97
2018-09-27T02:40:53.746Z,83.73
2018-09-27T02:44:00.681Z,83.19
2018-09-27T02:47:06.741Z,84.08
2018-09-27T02:50:13.178Z,82.69
2018-09-27T02:53:19.309Z,83.15
2018-09-27T02:56:24.889Z,82.84
2018-09-27T02:59:31.354Z,84.28
2018-09-27T03:02:36.604Z,83.07
2018-09-27T03:05:43.260Z,83.84
2018-09-27T03:08:49.406Z,84.27
2018-09-27T03:11:54.455Z,83.82
2018-09-27T03:15:01.065Z,83.37
2018-09-27T03:18:06.153Z,83.85
2018-09-27T03:21:12.407Z,83.08
2018-09-27T03:24:18.382Z,83.93
2018-09-27T03:27:24.226Z,83.53
2018-09-27T03:30:29.961Z,83.71
2018-09-27T03:33:35.522Z,84.13
2018-09-27T03:36:42.377Z,83.18
2018-09-27T03:39:48.100Z,83.44
2018-09-27T03:42:53.824Z,83.28
2018-09-27T03:45:59.958Z,83.78
2018-09-27T03:49:06.450Z,83.49
2018-09-27T03:52:13.213Z,83.05
2018-09-27T03:55:18.210Z,83.13
2018-09-27T03:58:24.965Z,84.14
2018-09-27T04:01:31.819Z,82.91
2018-09-27T04:04:36.875Z,83.56
2018-09-27T04:07:42.604Z,83.99
2018-09-27T04:10:49.070Z,84.26
2018-09-27T04:13:55.042Z,83.29
2018-09-27T04:17:00.879Z,83.93
2018-09-27T04:20:07.060Z,83.54
2018-09-27T04:23:12.430Z,83.50
2018-09-27T04:26:19.953Z,82.82
2018-09-27T04:29:25.721Z,83.29
2018-09-27T04:32:30.878Z,83.38
2018-09-27T04:35:35.913Z,83.69
2018-09-27T04:38:41.778Z,82.98
2018-09-27T04:41:48.757Z,82.70
2018-09-27T04:44:53.803Z,82.90
2018-09-27T04:47:59.097Z,83.41
2018-09-27T04:51:04.169Z,84.03
2018-09-27T04:54:09.407Z,83.85
2018-09-27T04:57:14.480Z,84.03
2018-09-27T05:00:20.282Z,83.08
2018-09-27T05:03:26.405Z,84.11
2018-09-27T05:06:31.539Z,83.38
2018-09-27T05:09:37.391Z,83.95
2018-09-27T05:57:01.937Z,81.16
2018-09-27T06:00:18.911Z,81.50
2018-09-27T06:03:37.533Z,81.63
2018-09-27T06:06:57.872Z,81.80
2018-09-27T06:10:14.202Z,81.35
2018-09-27T06:13:27.791Z,81.68
2018-09-27T06:16:47.206Z,81.96
2018-09-27T06:19:59.289Z,81.49
2018-09-27T06:23:18.018Z,82.67
2018-09-27T06:26:30.346Z,82.07
2018-09-27T06:42:48.720Z,83.48
2018-09-27T06:46:02.609Z,84.66
2018-09-27T06:49:15.286Z,85.34
2018-09-27T06:52:33.692Z,83.87
2018-09-27T06:55:43.471Z,83.23
2018-09-27T06:58:57.986Z,82.40
2018-09-27T07:02:08.872Z,81.60
2018-09-27T07:05:24.985Z,81.36
2018-09-27T07:08:36.476Z,80.69
2018-09-27T07:11:48.699Z,80.74
2018-09-27T07:15:06.240Z,80.39
2018-09-27T07:18:12.441Z,80.88
2018-09-27T07:21:18.649Z,81.45
2018-09-27T07:24:24.733Z,81.45
2018-09-27T07:27:30.912Z,79.75
2018-09-27T07:30:38.071Z,78.35
2018-09-27T07:37:13.654Z,78.59
2018-09-27T07:40:20.174Z,78.53
2018-09-27T07:43:26.594Z,78.37
2018-09-27T07:46:31.626Z,77.56
2018-09-27T07:49:37.993Z,77.44
2018-09-27T07:52:44.749Z,74.96
2018-09-27T07:55:51.658Z,74.95
2018-09-27T07:58:56.724Z,73.69
2018-09-27T08:02:02.737Z,73.59
2018-09-27T08:05:07.740Z,71.29
2018-09-27T08:08:13.635Z,70.21
2018-09-27T08:11:20.636Z,68.31
2018-09-27T08:14:25.541Z,65.63
2018-09-27T08:17:31.389Z,66.84
2018-09-27T08:20:37.678Z,67.39
2018-09-27T08:23:43.289Z,66.08
2018-09-27T08:26:49.341Z,65.54
2018-09-27T08:29:55.650Z,64.99
2018-09-27T08:33:01.189Z,63.14
2018-09-27T08:36:06.222Z,60.97
2018-09-27T08:39:12.337Z,59.86
2018-09-27T08:42:17.403Z,60.30
2018-09-27T08:45:23.835Z,58.82
2018-09-27T08:48:28.550Z,56.71
2018-09-27T08:51:34.385Z,56.29
2018-09-27T08:54:39.394Z,55.63
2018-09-27T08:57:45.381Z,56.15
2018-09-27T09:00:50.391Z,53.32
2018-09-27T09:03:56.332Z,52.45
2018-09-27T09:07:02.385Z,51.42
2018-09-27T09:10:07.374Z,52.06
2018-09-27T09:13:12.398Z,51.80
2018-09-27T09:16:18.244Z,49.67
2018-09-27T09:19:24.215Z,51.21
2018-09-27T09:22:30.066Z,51.38
2018-09-27T09:25:35.981Z,52.21
2018-09-27T09:28:41.988Z,50.37
2018-09-27T09:31:48.032Z,48.46
2018-09-27T09:34:53.064Z,48.48
2018-09-27T09:37:58.214Z,47.96
2018-09-27T09:41:03.245Z,46.95
2018-09-27T09:44:08.284Z,47.78
2018-09-27T09:47:13.357Z,46.87
2018-09-27T09:50:18.386Z,46.48
2018-09-27T09:53:24.243Z,45.79
2018-09-27T09:56:29.722Z,45.83
2018-09-27T09:59:35.538Z,46.07
2018-09-27T10:02:41.418Z,46.18
2018-09-27T10:05:46.427Z,44.15
2018-09-27T10:08:51.500Z,43.41
2018-09-27T10:11:57.233Z,44.35
2018-09-27T10:15:02.248Z,45.46
2018-09-27T10:18:07.502Z,42.27
2018-09-27T10:21:12.557Z,42.21
2018-09-27T10:24:17.521Z,42.13
2018-09-27T10:27:23.534Z,42.22
2018-09-27T10:30:29.245Z,41.58
2018-09-27T10:33:36.733Z,41.25
2018-09-27T10:36:42.522Z,40.03
2018-09-27T10:39:47.523Z,41.37
2018-09-27T10:42:52.530Z,40.96
2018-09-27T10:45:58.561Z,42.24
2018-09-27T10:49:03.602Z,41.49
2018-09-27T10:52:08.617Z,41.30
2018-09-27T10:55:23.360Z,40.46
2018-09-27T10:58:31.793Z,41.14
2018-09-27T11:01:40.952Z,41.34
2018-09-27T11:04:50.571Z,39.95
2018-09-27T11:08:01.850Z,39.81
2018-09-27T11:11:12.995Z,41.11
2018-09-27T11:14:21.733Z,39.44
2018-09-27T11:17:33.797Z,42.07
2018-09-27T11:20:47.736Z,41.89
2018-09-27T11:24:01.794Z,41.25
2018-09-27T11:27:12.366Z,40.18
2018-09-27T11:30:29.354Z,42.23
2018-09-27T11:33:38.310Z,40.84
2018-09-27T11:36:52.669Z,40.34
2018-09-27T11:40:04.552Z,38.71
2018-09-27T11:43:15.023Z,39.04
2018-09-27T11:46:20.309Z,39.05
2018-09-27T11:49:26.523Z,38.26
2018-09-27T11:52:31.543Z,39.40
2018-09-27T11:55:36.545Z,37.67
2018-09-27T11:58:43.006Z,36.78
2018-09-27T12:01:49.796Z,36.01
2018-09-27T12:04:54.859Z,35.75
2018-09-27T12:08:00.848Z,39.26
2018-09-27T12:14:53.527Z,37.96
2018-09-27T12:17:59.602Z,37.06
2018-09-27T12:21:12.286Z,36.01
2018-09-27T12:24:18.428Z,36.22
2018-09-27T12:27:24.546Z,36.00
2018-09-27T12:30:30.302Z,36.57
2018-09-27T12:33:36.142Z,36.49
2018-09-27T12:36:41.261Z,35.91
2018-09-27T12:39:46.388Z,35.86
2018-09-27T12:42:52.222Z,35.02
2018-09-27T12:45:59.535Z,34.91
2018-09-27T12:49:04.683Z,35.04
2018-09-27T12:52:11.800Z,36.07
2018-09-27T12:55:18.257Z,35.40
2018-09-27T12:58:33.983Z,35.16
2018-09-27T13:01:45.195Z,34.84
2018-09-27T13:04:51.622Z,33.80
2018-09-27T13:08:03.426Z,34.13
2018-09-27T13:11:14.426Z,33.56
2018-09-27T13:14:24.297Z,33.81
2018-09-27T13:17:38.714Z,35.11
2018-09-27T13:20:50.851Z,34.90
2018-09-27T13:24:02.786Z,33.85
2018-09-27T13:27:13.387Z,34.29
2018-09-27T13:30:23.806Z,34.71
2018-09-27T13:33:35.767Z,34.45
2018-09-27T13:36:47.293Z,35.13
2018-09-27T13:39:57.137Z,35.43
2018-09-27T13:43:06.427Z,34.81
2018-09-27T13:46:15.792Z,35.46
2018-09-27T13:49:27.556Z,34.90
2018-09-27T13:52:37.232Z,35.28
2018-09-27T13:55:45.649Z,33.91
2018-09-27T13:59:00.791Z,35.23
2018-09-27T14:02:14.132Z,33.08
2018-09-27T14:05:33.424Z,32.68
2018-09-27T14:08:56.108Z,32.29
2018-09-27T14:12:04.509Z,34.07
2018-09-27T14:15:12.669Z,33.84
2018-09-27T14:18:17.963Z,34.43
2018-09-27T14:21:28.764Z,34.55
2018-09-27T14:24:39.844Z,34.39
2018-09-27T14:27:48.885Z,34.67
2018-09-27T14:33:16.259Z,34.09
2018-09-27T14:36:28.808Z,35.80
2018-09-27T14:39:41.794Z,35.26
2018-09-27T14:42:50.119Z,35.49
2018-09-27T14:46:01.098Z,35.66
2018-09-27T14:49:10.698Z,35.91
2018-09-27T14:52:22.769Z,37.13
2018-09-27T14:55:35.260Z,35.66
2018-09-27T14:58:43.279Z,37.41
2018-09-27T15:01:55.042Z,37.42
2018-09-27T15:05:05.548Z,37.76
2018-09-27T15:08:18.738Z,37.86
2018-09-27T15:11:28.364Z,37.18
2018-09-27T15:14:39.216Z,38.38
2018-09-27T15:17:54.095Z,38.28
2018-09-27T15:21:02.739Z,37.20
2018-09-27T15:24:15.797Z,38.78
2018-09-27T15:27:22.149Z,39.11
2018-09-27T15:30:38.839Z,38.80
2018-09-27T15:34:06.399Z,40.59
2018-09-27T15:37:15.668Z,38.90
2018-09-27T15:40:25.579Z,40.21
2018-09-27T15:43:40.879Z,39.69
2018-09-27T15:47:01.621Z,41.23
2018-09-27T15:50:10.395Z,41.32
2018-09-27T15:53:16.610Z,42.35
2018-09-27T15:56:23.594Z,40.77
2018-09-27T15:59:28.741Z,43.95
2018-09-27T16:02:36.421Z,44.14
2018-09-27T16:05:43.630Z,45.36
2018-09-27T16:08:50.907Z,45.97
2018-09-27T16:12:00.057Z,46.88
2018-09-27T16:15:06.118Z,49.33
2018-09-27T16:18:13.020Z,48.08
2018-09-27T16:21:19.998Z,49.33
2018-09-27T16:24:25.915Z,50.17
2018-09-27T16:27:31.149Z,50.42
2018-09-27T16:30:38.369Z,50.52
2018-09-27T16:33:44.218Z,51.30
2018-09-27T16:36:51.098Z,51.91
2018-09-27T16:39:56.142Z,53.67
2018-09-27T16:43:02.413Z,54.23
2018-09-27T16:46:08.511Z,54.69
2018-09-27T16:49:15.648Z,57.04
2018-09-27T16:52:21.086Z,57.10
2018-09-27T16:55:26.565Z,58.18
2018-09-27T16:58:34.084Z,58.59
2018-09-27T17:01:41.736Z,59.25
2018-09-27T17:04:47.829Z,60.77
2018-09-27T17:08:00.984Z,60.96
2018-09-27T17:11:08.321Z,61.83
2018-09-27T17:14:14.203Z,62.71
2018-09-27T17:17:20.093Z,64.14
2018-09-27T17:20:26.180Z,64.10
2018-09-27T17:23:33.695Z,64.09
2018-09-27T17:26:42.381Z,65.73
2018-09-27T17:29:48.346Z,66.30
2018-09-27T17:32:54.354Z,66.81
2018-09-27T17:35:59.450Z,67.70
2018-09-27T17:39:05.626Z,67.08
2018-09-27T17:42:11.855Z,68.20
2018-09-27T17:45:17.878Z,69.14
2018-09-27T17:48:23.115Z,68.68
2018-09-27T17:51:29.891Z,69.03
2018-09-27T17:54:35.969Z,69.84
2018-09-27T17:57:41.037Z,69.95
2018-09-27T18:00:46.106Z,69.98
2018-09-27T18:03:51.192Z,70.44
2018-09-27T18:06:57.851Z,70.51
2018-09-27T18:10:03.322Z,70.49
2018-09-27T18:13:08.370Z,71.20
2018-09-27T18:16:14.220Z,72.05
2018-09-27T18:19:20.457Z,71.88
2018-09-27T18:22:27.355Z,72.89
2018-09-27T18:25:33.648Z,73.79
2018-09-27T18:28:39.884Z,74.20
2018-09-27T18:31:45.950Z,74.63
2018-09-27T18:34:52.000Z,73.82
2018-09-27T18:37:58.367Z,73.73
2018-09-27T18:41:06.041Z,74.06
2018-09-27T18:44:12.255Z,73.98
2018-09-27T18:47:17.318Z,75.26
2018-09-27T18:50:22.990Z,75.70
2018-09-27T18:53:28.191Z,75.17
2018-09-27T18:56:34.698Z,75.13
2018-09-27T18:59:41.046Z,76.36
2018-09-27T19:02:46.299Z,76.50
2018-09-27T19:05:51.314Z,76.50
2018-09-27T19:08:57.426Z,75.77
2018-09-27T19:12:03.231Z,75.88
2018-09-27T19:15:09.620Z,76.61
2018-09-27T19:18:19.265Z,76.41
2018-09-27T19:21:25.487Z,77.35
2018-09-27T19:24:31.580Z,77.25
2018-09-27T19:27:37.755Z,77.30
2018-09-27T19:30:43.923Z,76.86
2018-09-27T19:33:48.962Z,76.81
2018-09-27T19:36:55.542Z,76.98
2018-09-27T19:40:00.575Z,77.25
2018-09-27T19:43:05.630Z,77.04
2018-09-27T19:46:12.658Z,77.81
2018-09-27T19:49:18.913Z,77.65
2018-09-27T19:52:26.715Z,77.18
2018-09-27T19:55:32.850Z,77.54
2018-09-27T19:58:39.528Z,77.83
2018-09-27T20:01:45.351Z,78.56
2018-09-27T20:04:51.985Z,78.02
2018-09-27T20:07:57.166Z,78.52
2018-09-27T20:11:02.941Z,78.74
2018-09-27T20:14:09.483Z,78.70
2018-09-27T20:17:14.517Z,78.67
2018-09-27T20:20:20.319Z,78.90
2018-09-27T20:23:26.198Z,78.72
2018-09-27T20:26:32.340Z,78.65
2018-09-27T20:29:38.533Z,78.73
2018-09-27T20:32:43.537Z,78.71
2018-09-27T20:35:50.113Z,78.83
2018-09-27T20:38:56.453Z,78.96
2018-09-27T20:42:03.457Z,79.59
2018-09-27T20:45:09.389Z,80.05
2018-09-27T20:48:16.168Z,79.50
2018-09-27T20:51:22.301Z,80.13
2018-09-27T20:54:28.405Z,80.23
2018-09-27T20:57:34.389Z,79.93
2018-09-27T21:00:40.438Z,79.56
2018-09-27T21:03:46.506Z,80.20
2018-09-27T21:06:51.579Z,79.62
2018-09-27T21:09:59.842Z,79.74
2018-09-27T21:25:23.215Z,79.61
2018-09-27T21:28:29.041Z,79.78
2018-09-27T21:31:34.137Z,79.79
2018-09-27T21:34:41.167Z,79.91
2018-09-27T21:37:47.159Z,80.03
2018-09-27T21:40:52.892Z,79.62
2018-09-27T21:43:59.426Z,80.15
2018-09-27T21:47:06.850Z,80.53
2018-09-27T21:50:12.938Z,79.80
2018-09-27T21:53:19.001Z,80.90
2018-09-27T21:56:25.149Z,80.37
2018-09-27T22:02:34.005Z,81.15
2018-09-27T22:05:41.419Z,80.85
2018-09-27T22:08:48.650Z,80.52
2018-09-27T22:11:53.695Z,80.81
2018-09-27T22:15:00.471Z,80.46
2018-09-27T22:18:05.526Z,80.13
2018-09-27T22:21:12.490Z,80.72
2018-09-27T22:24:18.458Z,80.91
2018-09-27T22:27:24.637Z,80.90
2018-09-27T22:30:30.681Z,82.04
2018-09-27T22:33:36.654Z,81.86
2018-09-27T22:36:41.723Z,81.09
2018-09-27T22:39:48.449Z,81.05
2018-09-27T22:42:54.604Z,81.09
2018-09-27T22:45:59.839Z,81.62
2018-09-27T22:49:04.841Z,81.01
2018-09-27T22:52:09.876Z,81.55
2018-09-27T22:55:14.873Z,81.49
2018-09-27T22:58:20.625Z,81.59
2018-09-27T23:01:27.601Z,82.22
2018-09-27T23:04:33.802Z,81.63
2018-09-27T23:07:38.820Z,82.94
2018-09-27T23:10:44.874Z,82.90
2018-09-27T23:13:49.891Z,82.02
2018-09-27T23:16:55.091Z,81.57
2018-09-27T23:20:00.899Z,82.68
2018-09-27T23:23:07.046Z,82.14
2018-09-27T23:26:12.807Z,81.62
2018-09-27T23:29:18.539Z,82.52
2018-09-27T23:32:25.331Z,81.62
2018-09-27T23:35:30.360Z,82.69
2018-09-27T23:38:35.370Z,81.55
2018-09-27T23:41:41.551Z,81.41
2018-09-27T23:44:48.549Z,81.38
2018-09-27T23:47:55.062Z,82.75
2018-09-27T23:51:00.880Z,82.40
2018-09-27T23:54:06.162Z,82.66
2018-09-27T23:57:12.526Z,82.61
